createdAt,value
2023-03-10T00:00:25.377Z,94677.19
2023-03-10T00:02:53.166Z,94678.25
2023-03-10T00:05:21.377Z,94673.09
2023-03-10T00:07:50.323Z,94676.38
2023-03-10T00:10:19.246Z,94666.56
2023-03-10T00:12:47.068Z,94664.97
2023-03-10T00:15:15.284Z,94661.75
2023-03-10T00:17:44.386Z,94672.47
2023-03-10T00:20:14.437Z,94673.81
2023-03-10T00:22:42.792Z,94686.06
2023-03-10T00:25:11.768Z,94676.22
2023-03-10T00:27:39.840Z,94677.81
2023-03-10T00:30:09.367Z,94666.34
2023-03-10T00:32:37.266Z,94679.63
2023-03-10T00:35:07.965Z,94673.50
2023-03-10T00:37:38.389Z,94668.97
2023-03-10T00:40:09.987Z,94667.69
2023-03-10T00:42:37.808Z,94664.50
2023-03-10T00:45:06.293Z,94666.13
2023-03-10T00:47:34.061Z,94657.06
2023-03-10T00:50:01.867Z,94665.56
2023-03-10T00:52:34.547Z,94643.69
2023-03-10T00:55:02.311Z,94656.94
2023-03-10T00:57:30.354Z,94660.38
2023-03-10T00:59:58.097Z,94657.97
2023-03-10T01:02:25.942Z,94662.22
2023-03-10T01:04:53.838Z,94661.03
2023-03-10T01:07:21.565Z,94648.78
2023-03-10T01:09:50.682Z,94646.00
2023-03-10T01:12:18.442Z,94651.81
2023-03-10T01:14:46.354Z,94639.19
2023-03-10T01:17:14.193Z,94646.38
2023-03-10T01:19:41.982Z,94647.56
2023-03-10T01:22:09.736Z,94641.91
2023-03-10T01:24:37.495Z,94640.63
2023-03-10T01:27:06.715Z,94634.75
2023-03-10T01:29:34.530Z,94637.63
2023-03-10T01:32:02.398Z,94641.44
2023-03-10T01:34:30.115Z,94643.56
2023-03-10T01:36:57.961Z,94639.56
2023-03-10T01:39:25.706Z,94644.13
2023-03-10T01:41:53.454Z,94652.09
2023-03-10T01:44:23.057Z,94644.84
2023-03-10T01:46:52.276Z,94642.47
2023-03-10T01:49:40.655Z,94648.56
2023-03-10T01:52:13.531Z,94643.53
2023-03-10T01:54:50.120Z,94634.72
2023-03-10T01:57:21.824Z,94640.25
2023-03-10T01:59:51.919Z,94641.34
2023-03-10T02:02:20.280Z,94642.94
2023-03-10T02:04:49.854Z,94621.38
2023-03-10T02:07:22.256Z,94632.25
2023-03-10T02:09:53.518Z,94619.88
2023-03-10T02:12:21.715Z,94660.78
2023-03-10T02:14:52.990Z,94655.06
2023-03-10T02:17:24.106Z,94651.84
2023-03-10T02:20:05.521Z,94660.78
2023-03-10T02:22:34.353Z,94664.88
2023-03-10T02:25:11.849Z,94667.63
2023-03-10T02:27:41.704Z,94663.88
2023-03-10T02:30:12.350Z,94633.50
2023-03-10T02:32:43.209Z,94652.75
2023-03-10T02:35:11.575Z,94647.41
2023-03-10T02:37:39.775Z,94632.25
2023-03-10T02:40:29.711Z,94654.91
2023-03-10T02:42:59.894Z,94658.06
2023-03-10T02:45:30.334Z,94659.66
2023-03-10T02:47:58.175Z,94653.28
2023-03-10T02:50:30.119Z,94659.41
2023-03-10T02:53:03.033Z,94647.16
2023-03-10T02:55:30.934Z,94650.09
2023-03-10T02:58:02.429Z,94662.91
2023-03-10T03:00:30.601Z,94658.09
2023-03-10T03:02:58.788Z,94650.66
2023-03-10T03:05:26.573Z,94655.16
2023-03-10T03:07:54.303Z,94639.19
2023-03-10T03:10:22.536Z,94627.72
2023-03-10T03:12:51.293Z,94617.84
2023-03-10T03:15:20.644Z,94625.50
2023-03-10T03:17:48.451Z,94626.59
2023-03-10T03:20:16.888Z,94644.22
2023-03-10T03:22:46.734Z,94633.81
2023-03-10T03:25:16.676Z,94639.41
2023-03-10T03:27:45.385Z,94631.38
2023-03-10T03:30:16.307Z,94627.16
2023-03-10T03:32:45.532Z,94621.81
2023-03-10T03:35:15.899Z,94611.13
2023-03-10T03:37:43.731Z,94595.88
2023-03-10T03:40:13.998Z,94614.78
2023-03-10T03:42:42.486Z,94600.03
2023-03-10T03:45:11.743Z,94596.06
2023-03-10T03:47:39.565Z,94587.56
2023-03-10T03:50:11.382Z,94581.91
2023-03-10T03:52:39.196Z,94579.53
2023-03-10T03:55:08.087Z,94572.06
2023-03-10T03:57:36.129Z,94551.56
2023-03-10T04:00:07.827Z,94565.16
2023-03-10T04:02:36.505Z,94548.69
2023-03-10T04:05:05.813Z,94565.69
2023-03-10T04:07:34.977Z,94547.59
2023-03-10T04:10:03.105Z,94536.94
2023-03-10T04:12:30.875Z,94521.19
2023-03-10T04:14:58.777Z,94517.16
2023-03-10T04:17:26.661Z,94515.06
2023-03-10T04:20:06.506Z,94506.53
2023-03-10T04:22:36.788Z,94506.53
2023-03-10T04:25:06.015Z,94506.56
2023-03-10T04:27:34.124Z,94495.16
2023-03-10T04:30:02.186Z,94484.78
2023-03-10T04:32:30.057Z,94475.22
2023-03-10T04:34:58.174Z,94472.28
2023-03-10T04:37:27.245Z,94486.63
2023-03-10T04:39:57.095Z,94481.03
2023-03-10T04:42:28.154Z,94466.06
2023-03-10T04:44:55.938Z,94472.75
2023-03-10T04:47:23.698Z,94451.47
2023-03-10T04:49:51.530Z,94443.69
2023-03-10T04:52:19.698Z,94467.88
2023-03-10T04:54:47.394Z,94434.44
2023-03-10T04:57:16.872Z,94456.91
2023-03-10T04:59:44.697Z,94444.56
2023-03-10T05:02:12.469Z,94431.75
2023-03-10T05:04:40.671Z,94434.00
2023-03-10T05:07:29.726Z,94425.13
2023-03-10T05:09:57.700Z,94421.94
2023-03-10T05:12:25.605Z,94435.41
2023-03-10T05:14:53.349Z,94400.44
2023-03-10T05:17:21.155Z,94420.66
2023-03-10T05:19:48.938Z,94418.56
2023-03-10T05:22:16.719Z,94404.81
2023-03-10T05:24:45.835Z,94403.22
2023-03-10T05:27:14.959Z,94413.47
2023-03-10T05:29:43.262Z,94412.13
2023-03-10T05:32:11.024Z,94390.53
2023-03-10T05:34:38.768Z,94400.19
2023-03-10T05:37:06.552Z,94384.75
2023-03-10T05:39:34.341Z,94376.22
2023-03-10T05:42:03.608Z,94378.09
2023-03-10T05:44:31.420Z,94364.31
2023-03-10T05:46:59.249Z,94372.59
2023-03-10T05:49:27.209Z,94372.34
2023-03-10T05:51:54.999Z,94381.94
2023-03-10T05:54:22.760Z,94377.94
2023-03-10T05:56:50.487Z,94376.06
2023-03-10T05:59:19.767Z,94370.50
2023-03-10T06:01:47.554Z,94372.09
2023-03-10T06:04:15.427Z,94367.28
2023-03-10T06:06:43.262Z,94368.34
2023-03-10T06:09:11.153Z,94366.75
2023-03-10T06:11:38.926Z,94379.47
2023-03-10T06:14:06.721Z,94390.94
2023-03-10T06:16:35.933Z,94427.38
2023-03-10T06:19:04.000Z,94435.59
2023-03-10T06:21:31.756Z,94430.47
2023-03-10T06:24:00.829Z,94430.97
2023-03-10T06:26:28.702Z,94433.91
2023-03-10T06:28:56.423Z,94437.34
2023-03-10T06:31:25.617Z,94418.16
2023-03-10T06:33:55.002Z,94432.53
2023-03-10T06:36:26.026Z,94435.50
2023-03-10T06:38:55.228Z,94428.91
2023-03-10T06:41:23.244Z,94401.47
2023-03-10T06:43:51.202Z,94400.19
2023-03-10T06:46:19.292Z,94427.66
2023-03-10T06:48:47.344Z,94449.78
2023-03-10T06:51:18.840Z,94455.13
2023-03-10T06:53:47.880Z,94454.06
2023-03-10T06:56:17.873Z,94472.69
2023-03-10T06:58:46.693Z,94501.22
2023-03-10T07:01:23.353Z,94503.06
2023-03-10T07:03:51.472Z,94521.19
2023-03-10T07:06:20.841Z,94533.41
2023-03-10T07:08:48.969Z,94544.06
2023-03-10T07:11:17.637Z,94537.66
2023-03-10T07:13:45.402Z,94536.81
2023-03-10T07:16:13.250Z,94529.09
2023-03-10T07:18:41.059Z,94513.09
2023-03-10T07:21:09.726Z,94521.34
2023-03-10T07:23:39.398Z,94522.13
2023-03-10T07:26:09.035Z,94502.44
2023-03-10T07:28:38.581Z,94534.38
2023-03-10T07:31:07.619Z,94531.16
2023-03-10T07:33:36.335Z,94518.94
2023-03-10T07:36:06.473Z,94524.50
2023-03-10T07:38:34.314Z,94555.16
2023-03-10T07:41:07.584Z,94571.63
2023-03-10T07:43:35.396Z,94577.22
2023-03-10T07:46:06.452Z,94587.84
2023-03-10T07:48:34.376Z,94586.47
2023-03-10T07:51:02.701Z,94598.16
2023-03-10T07:53:31.401Z,94608.84
2023-03-10T07:55:59.728Z,94613.09
2023-03-10T07:58:28.903Z,94609.84
2023-03-10T08:00:57.260Z,94621.22
2023-03-10T08:03:25.976Z,94617.22
2023-03-10T08:05:53.910Z,94643.25
2023-03-10T08:08:23.169Z,94634.22
2023-03-10T08:10:51.274Z,94620.88
2023-03-10T08:13:19.071Z,94626.22
2023-03-10T08:15:48.254Z,94625.47
2023-03-10T08:18:16.118Z,94624.34
2023-03-10T08:20:44.237Z,94640.69
2023-03-10T08:23:12.018Z,94636.97
2023-03-10T08:25:40.318Z,94645.88
2023-03-10T08:28:08.268Z,94631.91
2023-03-10T08:30:36.598Z,94644.22
2023-03-10T08:33:07.659Z,94648.78
2023-03-10T08:35:35.885Z,94639.44
2023-03-10T08:38:04.137Z,94644.78
2023-03-10T08:40:32.376Z,94642.13
2023-03-10T08:43:00.087Z,94642.13
2023-03-10T08:45:28.147Z,94649.56
2023-03-10T08:47:55.978Z,94636.78
2023-03-10T08:50:25.164Z,94639.47
2023-03-10T08:52:53.004Z,94653.84
2023-03-10T08:55:20.884Z,94655.97
2023-03-10T08:57:48.645Z,94644.25
2023-03-10T09:00:17.922Z,94645.31
2023-03-10T09:02:45.744Z,94643.66
2023-03-10T09:05:13.563Z,94629.06
2023-03-10T09:07:42.890Z,94627.50
2023-03-10T09:10:12.001Z,94613.41
2023-03-10T09:12:39.770Z,94624.81
2023-03-10T09:15:08.595Z,94626.47
2023-03-10T09:17:38.254Z,94616.91
2023-03-10T09:20:08.064Z,94613.13
2023-03-10T09:22:35.936Z,94592.56
2023-03-10T09:25:05.653Z,94597.00
2023-03-10T09:27:33.435Z,94582.22
2023-03-10T09:30:01.690Z,94586.03
2023-03-10T09:32:29.730Z,94594.03
2023-03-10T09:34:57.528Z,94578.47
2023-03-10T09:37:25.361Z,94578.94
2023-03-10T09:39:54.187Z,94579.22
2023-03-10T09:42:44.000Z,94575.75
2023-03-10T09:45:23.948Z,94559.16
2023-03-10T09:48:06.358Z,94586.94
2023-03-10T09:50:39.344Z,94592.16
2023-03-10T09:53:20.209Z,94591.56
2023-03-10T09:55:49.108Z,94603.84
2023-03-10T09:58:28.102Z,94588.50
2023-03-10T10:00:55.912Z,94583.16
2023-03-10T10:03:29.599Z,94587.13
2023-03-10T10:06:00.498Z,94582.66
2023-03-10T10:08:30.714Z,94608.09
2023-03-10T10:11:00.530Z,94605.69
2023-03-10T10:13:31.018Z,94612.06
2023-03-10T10:16:24.614Z,94607.88
2023-03-10T10:18:59.953Z,94589.78
2023-03-10T10:21:42.674Z,94595.13
2023-03-10T10:24:11.431Z,94609.56
2023-03-10T10:26:39.352Z,94607.41
2023-03-10T10:29:17.091Z,94617.25
2023-03-10T10:32:04.040Z,94606.84
2023-03-10T10:34:32.518Z,94613.44
2023-03-10T10:37:01.280Z,94621.72
2023-03-10T10:39:32.984Z,94633.19
2023-03-10T10:42:14.904Z,94634.53
2023-03-10T10:44:45.204Z,94630.75
2023-03-10T10:47:26.664Z,94626.00
2023-03-10T10:49:55.289Z,94618.56
2023-03-10T10:52:24.506Z,94629.38
2023-03-10T10:54:56.976Z,94627.41
2023-03-10T10:57:29.236Z,94633.78
2023-03-10T11:00:18.583Z,94626.28
2023-03-10T11:02:46.747Z,94629.31
2023-03-10T11:05:18.265Z,94632.03
2023-03-10T11:07:46.482Z,94633.91
2023-03-10T11:10:15.803Z,94643.88
2023-03-10T11:12:57.283Z,94639.66
2023-03-10T11:15:31.789Z,94640.47
2023-03-10T11:18:05.930Z,94642.09
2023-03-10T11:20:42.188Z,94640.25
2023-03-10T11:23:21.093Z,94650.78
2023-03-10T11:25:56.090Z,94646.88
2023-03-10T11:28:35.209Z,94652.34
2023-03-10T11:31:18.020Z,94661.84
2023-03-10T11:33:51.580Z,94664.53
2023-03-10T11:36:38.466Z,94657.28
2023-03-10T11:39:18.294Z,94664.06
2023-03-10T11:41:53.930Z,94669.13
2023-03-10T11:44:30.788Z,94667.47
2023-03-10T11:47:07.904Z,94668.69
2023-03-10T11:49:38.502Z,94674.34
2023-03-10T11:52:11.646Z,94666.66
2023-03-10T11:54:45.090Z,94672.19
2023-03-10T11:57:17.421Z,94676.09
2023-03-10T11:59:51.254Z,94667.03
2023-03-10T12:02:25.588Z,94673.44
2023-03-10T12:05:01.947Z,94681.47
2023-03-10T12:07:33.151Z,94681.75
2023-03-10T12:10:03.648Z,94685.00
2023-03-10T12:12:33.908Z,94687.94
2023-03-10T12:15:03.981Z,94685.81
2023-03-10T12:17:33.281Z,94688.50
2023-03-10T12:20:25.525Z,94703.16
2023-03-10T12:22:53.823Z,94697.28
2023-03-10T12:25:44.263Z,94683.97
2023-03-10T12:28:24.212Z,94665.56
2023-03-10T12:30:56.382Z,94681.06
2023-03-10T12:33:46.379Z,94693.84
2023-03-10T12:36:19.659Z,94687.44
2023-03-10T12:38:50.595Z,94700.50
2023-03-10T12:41:45.093Z,94684.50
2023-03-10T12:44:46.445Z,94692.75
2023-03-10T12:47:23.548Z,94688.25
2023-03-10T12:49:58.293Z,94683.97
2023-03-10T12:52:33.742Z,94678.09
2023-03-10T12:55:21.073Z,94663.44
2023-03-10T12:58:04.525Z,94674.63
2023-03-10T13:00:41.806Z,94680.25
2023-03-10T13:03:25.940Z,94685.00
2023-03-10T13:06:08.447Z,94701.84
2023-03-10T13:08:43.399Z,94676.75
2023-03-10T13:11:25.690Z,94672.97
2023-03-10T13:13:54.949Z,94674.22
2023-03-10T13:16:22.873Z,94696.94
2023-03-10T13:18:52.755Z,94672.88
2023-03-10T13:21:28.804Z,94688.03
2023-03-10T13:23:57.125Z,94686.91
2023-03-10T13:26:26.964Z,94677.63
2023-03-10T13:28:57.233Z,94674.13
2023-03-10T13:31:27.027Z,94691.59
2023-03-10T13:33:55.872Z,94705.22
2023-03-10T13:36:31.718Z,94686.56
2023-03-10T13:39:00.168Z,94693.00
2023-03-10T13:41:28.044Z,94684.88
2023-03-10T13:43:56.575Z,94705.75
2023-03-10T13:46:28.109Z,94714.00
2023-03-10T13:49:03.560Z,94721.97
2023-03-10T13:51:35.003Z,94705.47
2023-03-10T13:54:18.781Z,94739.13
2023-03-10T13:56:48.286Z,94725.78
2023-03-10T13:59:17.595Z,94722.31
2023-03-10T14:01:48.090Z,94724.09
2023-03-10T14:04:18.417Z,94727.81
2023-03-10T14:06:47.604Z,94719.34
2023-03-10T14:09:17.206Z,94738.56
2023-03-10T14:11:46.896Z,94736.69
2023-03-10T14:14:26.752Z,94739.69
2023-03-10T14:16:56.331Z,94741.28
2023-03-10T14:19:48.492Z,94756.22
2023-03-10T14:22:40.663Z,94766.09
2023-03-10T14:25:15.159Z,94771.72
2023-03-10T14:27:44.941Z,94785.56
2023-03-10T14:30:24.841Z,94786.38
2023-03-10T14:32:53.773Z,94759.97
2023-03-10T14:35:23.425Z,94781.28
2023-03-10T14:37:53.792Z,94801.53
2023-03-10T14:40:23.660Z,94805.63
2023-03-10T14:42:53.367Z,94824.84
2023-03-10T14:45:28.439Z,94865.66
2023-03-10T14:47:58.205Z,94833.06
2023-03-10T14:50:27.583Z,94828.28
2023-03-10T14:52:56.995Z,94826.13
2023-03-10T14:55:24.899Z,94863.75
2023-03-10T14:57:57.700Z,94836.28
2023-03-10T15:00:25.988Z,94862.97
2023-03-10T15:02:53.748Z,94866.75
2023-03-10T15:05:27.580Z,94864.31
2023-03-10T15:07:59.221Z,94860.31
2023-03-10T15:10:27.935Z,94873.16
2023-03-10T15:12:55.714Z,94862.97
2023-03-10T15:15:25.962Z,94876.28
2023-03-10T15:17:54.284Z,94908.91
2023-03-10T15:20:24.282Z,94889.69
2023-03-10T15:22:52.822Z,94884.88
2023-03-10T15:25:23.380Z,94899.56
2023-03-10T15:27:53.267Z,94898.19
2023-03-10T15:30:23.182Z,94932.31
2023-03-10T15:32:51.196Z,94940.31
2023-03-10T15:35:21.680Z,94935.28
2023-03-10T15:37:50.579Z,94921.44
2023-03-10T15:40:22.153Z,94911.53
2023-03-10T15:42:50.377Z,94912.03
2023-03-10T15:45:19.270Z,94917.81
2023-03-10T15:47:48.036Z,94911.41
2023-03-10T15:50:19.088Z,94934.56
2023-03-10T15:52:48.297Z,94944.41
2023-03-10T15:55:16.655Z,94956.09
2023-03-10T15:57:47.927Z,94946.50
2023-03-10T16:00:17.501Z,94926.22
2023-03-10T16:02:45.431Z,94929.88
2023-03-10T16:05:13.867Z,94935.72
2023-03-10T16:07:41.931Z,94936.22
2023-03-10T16:10:11.950Z,94953.84
2023-03-10T16:12:39.775Z,94971.13
2023-03-10T16:15:10.709Z,94984.41
2023-03-10T16:17:38.783Z,94977.97
2023-03-10T16:20:12.065Z,94960.69
2023-03-10T16:22:41.746Z,94938.63
2023-03-10T16:25:11.649Z,94951.06
2023-03-10T16:27:39.548Z,94981.50
2023-03-10T16:30:10.235Z,94946.28
2023-03-10T16:32:38.097Z,94940.38
2023-03-10T16:35:07.333Z,94979.16
2023-03-10T16:37:35.082Z,94970.69
2023-03-10T16:40:03.221Z,94949.22
2023-03-10T16:42:35.676Z,94954.56
2023-03-10T16:45:03.554Z,94976.66
2023-03-10T16:47:32.882Z,94944.22
2023-03-10T16:50:01.089Z,94950.81
2023-03-10T16:52:29.422Z,94964.50
2023-03-10T16:54:58.634Z,94939.44
2023-03-10T16:57:26.462Z,94949.31
2023-03-10T16:59:54.289Z,94958.09
2023-03-10T17:02:22.094Z,94966.81
2023-03-10T17:04:51.218Z,94956.19
2023-03-10T17:07:19.362Z,94968.56
2023-03-10T17:09:47.152Z,94983.75
2023-03-10T17:12:15.111Z,94978.38
2023-03-10T17:14:43.953Z,94976.16
2023-03-10T17:17:11.713Z,94976.09
2023-03-10T17:19:39.547Z,94989.47
2023-03-10T17:22:08.769Z,94989.16
2023-03-10T17:24:36.563Z,94982.00
2023-03-10T17:27:04.993Z,94988.88
2023-03-10T17:29:32.774Z,94984.13
2023-03-10T17:32:00.569Z,94985.19
2023-03-10T17:34:29.395Z,94989.50
2023-03-10T17:36:57.193Z,94995.06
2023-03-10T17:39:27.633Z,94994.84
2023-03-10T17:41:55.471Z,95007.69
2023-03-10T17:44:23.231Z,94956.78
2023-03-10T17:46:52.595Z,94974.81
2023-03-10T17:49:20.415Z,94982.03
2023-03-10T17:51:48.193Z,94980.13
2023-03-10T17:54:20.458Z,94993.31
2023-03-10T17:56:50.866Z,94986.66
2023-03-10T17:59:19.165Z,94979.28
2023-03-10T18:01:48.162Z,94979.28
2023-03-10T18:04:16.171Z,95005.47
2023-03-10T18:06:44.527Z,95003.81
2023-03-10T18:09:14.560Z,94991.94
2023-03-10T18:11:42.548Z,95011.97
2023-03-10T18:14:11.796Z,94996.84
2023-03-10T18:16:41.367Z,95007.50
2023-03-10T18:19:11.489Z,94997.09
2023-03-10T18:21:39.561Z,94984.81
2023-03-10T18:24:08.796Z,94998.66
2023-03-10T18:26:38.071Z,95008.78
2023-03-10T18:29:06.350Z,95018.13
2023-03-10T18:31:35.710Z,95024.69
2023-03-10T18:34:03.664Z,95043.25
2023-03-10T18:36:33.084Z,95076.53
2023-03-10T18:39:02.402Z,95049.00
2023-03-10T18:41:32.256Z,95062.91
2023-03-10T18:44:01.047Z,95077.28
2023-03-10T18:46:29.071Z,95081.16
2023-03-10T18:48:58.293Z,95077.94
2023-03-10T18:51:27.701Z,95085.56
2023-03-10T18:53:56.235Z,95084.34
2023-03-10T18:56:25.793Z,95084.72
2023-03-10T18:58:53.776Z,95088.19
2023-03-10T19:01:21.940Z,95073.84
2023-03-10T19:03:49.778Z,95093.03
2023-03-10T19:06:19.377Z,95094.34
2023-03-10T19:08:47.111Z,95086.69
2023-03-10T19:11:15.288Z,95085.00
2023-03-10T19:13:45.057Z,95101.44
2023-03-10T19:16:13.538Z,95110.69
2023-03-10T19:18:41.409Z,95122.06
2023-03-10T19:21:09.862Z,95130.13
2023-03-10T19:23:40.029Z,95126.09
2023-03-10T19:26:09.069Z,95128.91
2023-03-10T19:28:37.847Z,95162.25
2023-03-10T19:31:10.550Z,95182.00
2023-03-10T19:33:39.878Z,95191.00
2023-03-10T19:36:11.704Z,95180.03
2023-03-10T19:38:43.024Z,95173.75
2023-03-10T19:41:15.376Z,95180.59
2023-03-10T19:43:43.806Z,95182.81
2023-03-10T19:46:13.531Z,95176.91
2023-03-10T19:48:42.071Z,95185.13
2023-03-10T19:51:10.442Z,95188.66
2023-03-10T19:53:38.197Z,95192.25
2023-03-10T19:56:10.011Z,95191.75
2023-03-10T19:58:39.259Z,95186.75
2023-03-10T20:01:12.686Z,95210.06
2023-03-10T20:03:40.735Z,95214.78
2023-03-10T20:06:08.727Z,95209.78
2023-03-10T20:08:38.100Z,95218.34
2023-03-10T20:11:07.402Z,95214.44
2023-03-10T20:13:35.994Z,95225.16
2023-03-10T20:16:03.963Z,95228.88
2023-03-10T20:18:31.770Z,95240.38
2023-03-10T20:21:01.988Z,95221.00
2023-03-10T20:23:29.826Z,95214.09
2023-03-10T20:26:02.103Z,95233.09
2023-03-10T20:28:34.208Z,95235.03
2023-03-10T20:31:01.988Z,95234.28
2023-03-10T20:33:30.415Z,95251.38
2023-03-10T20:35:58.267Z,95265.63
2023-03-10T20:38:26.091Z,95266.72
2023-03-10T20:40:53.878Z,95271.91
2023-03-10T20:43:21.693Z,95288.22
2023-03-10T20:45:53.182Z,95281.19
2023-03-10T20:48:20.972Z,95300.09
2023-03-10T20:50:54.771Z,95310.00
2023-03-10T20:53:22.543Z,95301.03
2023-03-10T20:55:50.360Z,95295.75
2023-03-10T20:58:18.095Z,95300.72
2023-03-10T21:00:47.618Z,95293.19
2023-03-10T21:03:16.765Z,95299.88
2023-03-10T21:05:44.868Z,95310.28
2023-03-10T21:08:12.915Z,95307.28
2023-03-10T21:10:41.058Z,95301.75
2023-03-10T21:13:08.832Z,95299.31
2023-03-10T21:15:36.693Z,95301.84
2023-03-10T21:18:04.575Z,95309.69
2023-03-10T21:20:34.006Z,95322.94
2023-03-10T21:23:01.899Z,95342.78
2023-03-10T21:25:29.888Z,95347.38
2023-03-10T21:27:59.731Z,95362.38
2023-03-10T21:30:30.104Z,95361.69
2023-03-10T21:32:58.536Z,95360.06
2023-03-10T21:35:27.480Z,95363.97
2023-03-10T21:37:57.468Z,95360.19
2023-03-10T21:40:26.576Z,95371.69
2023-03-10T21:42:54.348Z,95387.59
2023-03-10T21:45:24.211Z,95382.75
2023-03-10T21:47:52.065Z,95410.66
2023-03-10T21:50:20.231Z,95409.72
2023-03-10T21:52:48.527Z,95414.81
2023-03-10T21:55:20.758Z,95405.59
2023-03-10T21:57:48.797Z,95410.88
2023-03-10T22:00:19.395Z,95412.50
2023-03-10T22:02:47.471Z,95421.28
2023-03-10T22:05:17.015Z,95431.66
2023-03-10T22:07:45.203Z,95431.53
2023-03-10T22:10:14.599Z,95414.31
2023-03-10T22:12:44.125Z,95424.22
2023-03-10T22:15:16.247Z,95424.66
2023-03-10T22:17:44.055Z,95445.69
2023-03-10T22:20:16.281Z,95432.88
2023-03-10T22:22:44.145Z,95433.66
2023-03-10T22:25:12.587Z,95443.69
2023-03-10T22:27:40.504Z,95443.34
2023-03-10T22:30:11.482Z,95419.56
2023-03-10T22:32:39.289Z,95427.19
2023-03-10T22:35:07.568Z,95439.38
2023-03-10T22:37:35.366Z,95451.84
2023-03-10T22:40:05.151Z,95449.75
2023-03-10T22:42:33.120Z,95440.28
2023-03-10T22:45:02.046Z,95422.06
2023-03-10T22:47:31.277Z,95419.78
2023-03-10T22:49:59.020Z,95411.91
2023-03-10T22:52:26.924Z,95411.13
2023-03-10T22:54:54.697Z,95424.38
2023-03-10T22:57:22.477Z,95432.03
2023-03-10T22:59:50.258Z,95439.72
2023-03-10T23:02:18.078Z,95435.91
2023-03-10T23:04:47.250Z,95438.69
2023-03-10T23:07:15.062Z,95424.72
2023-03-10T23:09:42.865Z,95431.06
2023-03-10T23:12:11.369Z,95424.16
2023-03-10T23:14:39.423Z,95408.69
2023-03-10T23:17:07.223Z,95406.19
2023-03-10T23:19:35.986Z,95418.09
2023-03-10T23:22:05.488Z,95420.91
2023-03-10T23:24:33.330Z,95431.22
2023-03-10T23:27:01.112Z,95439.31
2023-03-10T23:29:28.826Z,95426.19
2023-03-10T23:31:56.632Z,95400.34
2023-03-10T23:34:24.463Z,95421.81
2023-03-10T23:36:52.337Z,95425.50
2023-03-10T23:39:21.555Z,95450.72
2023-03-10T23:41:49.288Z,95433.44
2023-03-10T23:44:21.050Z,95425.91
2023-03-10T23:46:51.803Z,95417.31
2023-03-10T23:49:19.774Z,95432.84
2023-03-10T23:51:48.753Z,95446.31
2023-03-10T23:54:20.562Z,95450.00
2023-03-10T23:56:50.125Z,95450.09
2023-03-10T23:59:18.085Z,95462.78
